• Join FlightAware (Why Join?)
  • Login
  • US Flag 
05:02AM EDT


 

Airport Tracker/Info


-or-


 

Live Flight TrackerFlight Track Log ✈ SWA1629 ✈ 07-Apr-2014 ✈ KLAX - KOAK

Flight Track Log - Related Links

Times and Time Zones

All times are in EDT time to prevent confusion due to time zone crossing. See the SWA1629 flight status page for this flight to view local times or setup timezone preferences in your user account.

Time Position Orientation Groundspeed Altitude Reporting Facility
EDT Latitude Longitude Course Direction KTS MPH feet Rate Location/Type
09:24AM 33.9283 -118.4319 223° Southwest 168 193 1,400  Level Los Angeles Center
09:25AM 33.8778 -118.4883 223° Southwest 220 253 4,100 3,240 Climbing Los Angeles Center
09:26AM 33.8222 -118.5619 228° Southwest 280 322 8,000 3,660 Climbing Los Angeles Center
09:27AM 33.8139 -118.6617 264° West 299 344 11,600 3,540 Climbing Los Angeles Center
09:28AM 33.8067 -118.7783 266° West 351 404 15,300 3,540 Climbing Los Angeles Center
09:29AM 33.8792 -118.8664 315° West 374 430 18,800 3,360 Climbing Los Angeles Center
09:30AM 33.9589 -118.9514 319° Northwest 382 440 22,200 2,640 Climbing Los Angeles Center
09:31AM 34.0386 -119.0386 318° Northwest 385 443 24,300 2,280 Climbing Los Angeles Center
09:32AM 34.1194 -119.1253 318° Northwest 386 444 26,900 2,220 Climbing Los Angeles Center
09:33AM 34.2044 -119.2147 319° Northwest 403 464 28,900 2,160 Climbing Los Angeles Center
09:34AM 34.3031 -119.2875 329° Northwest 415 478 31,300 2,340 Climbing Los Angeles Center
09:35AM 34.4086 -119.3400 338° Northwest 411 473 33,700 2,160 Climbing Los Angeles Center
09:36AM 34.5119 -119.3942 337° Northwest 409 471 35,800 1,080 Climbing Los Angeles Center
09:37AM 34.6311 -119.4556 337° Northwest 404 465 36,000 60 Climbing Los Angeles Center
09:38AM 34.7344 -119.5075 338° Northwest 404 465 36,000  Level Los Angeles Center
09:39AM 34.8383 -119.5594 338° Northwest 404 465 36,000  Level Los Angeles Center
09:40AM 34.9361 -119.6197 333° Northwest 400 460 36,000  Level Los Angeles Center
09:41AM 35.0347 -119.6825 332° Northwest 400 460 36,000  Level Los Angeles Center
09:42AM 35.1328 -119.7450 332° Northwest 400 460 36,000  Level Los Angeles Center
09:43AM 35.2503 -119.8194 333° Northwest 400 460 36,000  Level Los Angeles Center
09:44AM 35.3481 -119.8822 332° Northwest 400 460 36,000  Level Los Angeles Center
09:45AM 35.4450 -119.9450 332° Northwest 399 459 36,000  Level Los Angeles Center
09:46AM 35.5431 -120.0081 332° Northwest 400 460 36,000  Level Los Angeles Center
09:47AM 35.6394 -120.0719 332° Northwest 400 460 36,000  Level Los Angeles Center
09:48AM 35.7186 -120.1225 333° Northwest 400 460 36,000  Level Oakland Center
09:49AM 35.8167 -120.1867 332° Northwest 400 460 36,000  Level Oakland Center
09:50AM 35.9144 -120.2514 332° Northwest 400 460 36,000  Level Oakland Center
09:51AM 36.0131 -120.3161 332° Northwest 400 460 36,000  Level Oakland Center
09:52AM 36.1117 -120.3797 332° Northwest 401 461 36,000  Level Oakland Center
09:53AM 36.2097 -120.4464 331° Northwest 401 461 36,000 -840 Level Oakland Center
09:54AM 36.3075 -120.5117 332° Northwest 401 461 34,400 -2,280 Descending Oakland Center
09:55AM 36.4056 -120.5756 332° Northwest 400 460 31,400 -2,760 Descending Oakland Center
09:56AM 36.5028 -120.6419 331° Northwest 400 460 28,900 -1,740 Descending Oakland Center
09:57AM 36.5986 -120.7039 333° Northwest 393 452 27,900 -1,200 Descending Oakland Center
09:58AM 36.7147 -120.7822 332° Northwest 393 452 26,600 -1,740 Descending Oakland Center
09:59AM 36.7919 -120.8692 318° Northwest 372 428 24,400 -2,220 Descending Oakland Center
10:00AM 36.8692 -120.9578 317° Northwest 369 425 22,200 -2,100 Descending Oakland Center
10:01AM 36.9408 -121.0394 318° Northwest 355 409 20,200 -2,040 Descending Oakland Center
10:02AM 37.0131 -121.1231 317° Northwest 354 407 18,100 -1,980 Descending Oakland Center
10:03AM 37.0797 -121.1981 318° Northwest 351 404 16,200 -2,160 Descending Oakland Center
10:04AM 37.1544 -121.2858 317° Northwest 345 397 13,800 -2,280 Descending Oakland Center
10:05AM 37.2231 -121.3644 318° Northwest 337 388 11,700 -1,800 Descending Oakland Center
10:06AM 37.2900 -121.4431 317° Northwest 332 382 10,200 -1,140 Descending Oakland Center
10:07AM 37.3514 -121.5131 318° Northwest 303 349 9,500 -840 Descending Oakland Center
10:08AM 37.4000 -121.5667 319° Northwest 291 335 8,900 -1,020 Descending Northern Cal TRACON
10:09AM 37.4500 -121.6333 313° West 284 327 7,900 -1,020 Descending Northern Cal TRACON
10:10AM 37.5000 -121.7000 313° West 286 329 7,000 -660 Descending Northern Cal TRACON
10:11AM 37.5167 -121.7833 284° West 278 320 6,700 -600 Descending Northern Cal TRACON
10:12AM 37.5500 -121.8667 297° West 253 291 5,800 -900 Descending Northern Cal TRACON
10:13AM 37.5833 -121.9500 297° West 238 274 5,000 -1,020 Descending Northern Cal TRACON
10:14AM 37.6000 -122.0167 288° West 216 249 3,900 -1,320 Descending Northern Cal TRACON
10:15AM 37.6167 -122.0833 288° West 203 234 2,500 -1,080 Descending Northern Cal TRACON
10:15AM 37.6328 -122.1156 302° West 197 227 2,100 -720 Descending Oakland Center
10:16AM 37.6617 -122.1564 312° West 170 196 1,300 -780 Descending Oakland Center
10:18AM 37.6861 -122.1928 310° West 152 175 600 9,180 Descending Oakland Center
10:19AM 37.7106 -122.2289 311° West 142 163 20,000 19,080 Climbing Oakland Center
10:21AM 37.7167 -122.2167 270° West  Level FlightAware Approximate